Terminal Aerodrome Forecast
Issued by NWS Pittsburgh, PA

Current Version | Previous Version | Text Only | Print | Product List | Glossary Off
Versions: 1 2 3 4 5 6 7 8 9 10 11 12 13 14 15 16 17 18 19 20 21 22 23 24 25 26 27 28 29 30 31 32 33 34

000
FTUS41 KPBZ 291321 AAC
TAFPIT
TAF AMD
KPIT 291321Z 2913/3018 29003KT 1SM BR BKN002 BKN040
     FM291500 32002KT 2SM BR BKN007
     FM291600 00000KT 4SM BR OVC015
     FM291700 26002KT P6SM BKN025
     FM291800 25003KT P6SM BKN050=

USA.gov is the U.S. government's official web portal to all federal, state and local government web resources and services.